createdAt,value
2023-08-08T00:00:28.338Z,101206.56
2023-08-08T00:03:01.246Z,101217.19
2023-08-08T00:05:34.210Z,101194.19
2023-08-08T00:08:07.899Z,101205.50
2023-08-08T00:10:49.856Z,101234.31
2023-08-08T00:13:22.846Z,101205.22
2023-08-08T00:15:55.520Z,101193.91
2023-08-08T00:18:43.635Z,101213.34
2023-08-08T00:21:16.549Z,101223.28
2023-08-08T00:23:58.332Z,101215.84
2023-08-08T00:26:31.074Z,101215.06
2023-08-08T00:29:16.015Z,101231.13
2023-08-08T00:31:58.475Z,101216.88
2023-08-08T00:34:31.523Z,101211.00
2023-08-08T00:37:07.330Z,101221.44
2023-08-08T00:39:40.458Z,101213.53
2023-08-08T00:42:19.357Z,101201.72
2023-08-08T00:44:52.151Z,101209.94
2023-08-08T00:47:35.960Z,101201.53
2023-08-08T00:55:45.092Z,101184.13
2023-08-08T00:58:23.623Z,101193.31
2023-08-08T01:01:05.334Z,101209.47
2023-08-08T01:03:38.089Z,101209.66
2023-08-08T01:06:50.767Z,101210.25
2023-08-08T01:09:48.526Z,101189.72
2023-08-08T01:15:10.547Z,101182.72
2023-08-08T01:17:54.083Z,101194.97
2023-08-08T01:20:27.156Z,101186.75
2023-08-08T01:23:43.711Z,101211.59
2023-08-08T01:26:16.737Z,101191.38
2023-08-08T01:28:55.843Z,101188.03
2023-08-08T01:31:28.516Z,101193.25
2023-08-08T01:34:10.736Z,101182.72
2023-08-08T01:37:21.657Z,101184.94
2023-08-08T01:40:00.752Z,101201.16
2023-08-08T01:45:22.081Z,101203.97
2023-08-08T01:48:09.395Z,101201.16
2023-08-08T01:53:50.642Z,101183.38
2023-08-08T01:56:23.476Z,101197.28
2023-08-08T01:59:07.305Z,101176.53
2023-08-08T02:01:40.017Z,101185.31
2023-08-08T02:04:19.008Z,101179.91
2023-08-08T02:07:00.115Z,101192.25
2023-08-08T02:09:47.054Z,101171.97
2023-08-08T02:12:32.210Z,101176.59
2023-08-08T02:15:05.787Z,101182.97
2023-08-08T02:17:40.200Z,101180.47
2023-08-08T02:20:13.272Z,101176.53
2023-08-08T02:22:45.999Z,101154.97
2023-08-08T02:25:27.589Z,101149.00
2023-08-08T02:30:47.195Z,101143.94
2023-08-08T02:33:28.587Z,101172.06
2023-08-08T02:36:01.288Z,101149.16
2023-08-08T02:38:46.429Z,101143.28
2023-08-08T02:41:22.136Z,101149.38
2023-08-08T02:43:54.803Z,101157.22
2023-08-08T02:46:39.390Z,101145.72
2023-08-08T02:49:12.039Z,101146.66
2023-08-08T02:51:53.334Z,101151.09
2023-08-08T02:54:26.039Z,101142.41
2023-08-08T02:56:58.699Z,101142.91
2023-08-08T02:59:45.760Z,101147.81
2023-08-08T03:02:18.396Z,101151.31
2023-08-08T03:04:51.329Z,101125.13
2023-08-08T03:07:38.654Z,101128.50
2023-08-08T03:10:29.251Z,101126.16
2023-08-08T03:13:13.991Z,101114.97
2023-08-08T03:15:46.875Z,101149.75
2023-08-08T03:18:29.294Z,101144.53
2023-08-08T03:21:02.062Z,101145.72
2023-08-08T03:23:43.096Z,101120.00
2023-08-08T03:29:02.338Z,101114.13
2023-08-08T03:31:35.020Z,101130.81
2023-08-08T03:34:07.649Z,101140.88
2023-08-08T03:36:43.556Z,101151.78
2023-08-08T03:39:16.450Z,101137.31
2023-08-08T03:41:49.062Z,101128.31
2023-08-08T03:44:21.766Z,101119.63
2023-08-08T03:47:02.275Z,101140.09
2023-08-08T03:49:42.469Z,101140.09
2023-08-08T03:52:15.560Z,101126.97
2023-08-08T03:54:48.560Z,101124.94
2023-08-08T03:57:36.528Z,101129.09
2023-08-08T04:00:24.901Z,101119.41
2023-08-08T04:02:57.747Z,101102.63
2023-08-08T04:05:47.485Z,101106.66
2023-08-08T04:11:06.698Z,101102.78
2023-08-08T04:13:54.145Z,101095.56
2023-08-08T04:16:27.147Z,101122.72
2023-08-08T04:19:05.529Z,101125.22
2023-08-08T04:21:38.199Z,101115.19
2023-08-08T04:24:23.136Z,101120.56
2023-08-08T04:26:55.781Z,101105.09
2023-08-08T04:29:28.478Z,101112.09
2023-08-08T04:32:01.491Z,101106.66
2023-08-08T04:34:43.567Z,101110.22
2023-08-08T04:37:16.208Z,101126.16
2023-08-08T04:40:18.414Z,101120.78
2023-08-08T04:42:51.923Z,101124.63
2023-08-08T04:45:30.771Z,101120.00
2023-08-08T04:48:03.708Z,101133.34
2023-08-08T04:50:36.445Z,101108.56
2023-08-08T04:53:09.137Z,101121.91
2023-08-08T04:55:50.832Z,101106.25
2023-08-08T04:58:23.723Z,101113.50
2023-08-08T05:01:05.332Z,101104.81
2023-08-08T05:03:38.267Z,101125.22
2023-08-08T05:06:23.130Z,101114.41
2023-08-08T05:09:12.697Z,101117.88
2023-08-08T05:11:45.448Z,101118.63
2023-08-08T05:14:30.517Z,101125.41
2023-08-08T05:17:15.134Z,101124.16
2023-08-08T05:22:34.342Z,101124.22
2023-08-08T05:25:13.196Z,101138.34
2023-08-08T05:27:45.887Z,101123.00
2023-08-08T05:30:27.926Z,101115.34
2023-08-08T05:33:00.702Z,101122.53
2023-08-08T05:35:45.308Z,101113.81
2023-08-08T05:38:18.088Z,101128.69
2023-08-08T05:40:59.784Z,101107.31
2023-08-08T05:43:32.490Z,101121.13
2023-08-08T05:46:17.075Z,101143.56
2023-08-08T05:48:49.930Z,101136.59
2023-08-08T05:51:22.714Z,101116.97
2023-08-08T05:53:55.526Z,101126.75
2023-08-08T05:56:50.084Z,101143.84
2023-08-08T05:59:22.717Z,101118.81
2023-08-08T06:02:05.399Z,101143.28
2023-08-08T06:04:38.260Z,101126.63
2023-08-08T06:07:11.123Z,101137.47
2023-08-08T06:09:52.891Z,101135.25
2023-08-08T06:12:25.716Z,101128.66
2023-08-08T06:14:58.452Z,101117.63
2023-08-08T06:17:38.304Z,101131.53
2023-08-08T06:22:58.110Z,101133.47
2023-08-08T06:25:40.216Z,101141.84
2023-08-08T06:28:13.154Z,101125.75
2023-08-08T06:31:03.773Z,101156.41
2023-08-08T06:33:36.436Z,101130.41
2023-08-08T06:36:18.584Z,101158.25
2023-08-08T06:41:39.486Z,101130.09
2023-08-08T06:44:21.178Z,101133.47
2023-08-08T06:46:53.811Z,101130.09
2023-08-08T06:49:35.974Z,101158.94
2023-08-08T06:54:55.322Z,101146.63
2023-08-08T06:57:35.957Z,101141.03
2023-08-08T07:00:23.935Z,101145.88
2023-08-08T07:03:01.248Z,101131.94
2023-08-08T07:05:48.914Z,101135.31
2023-08-08T07:11:20.175Z,101164.16
2023-08-08T07:13:58.927Z,101153.63
2023-08-08T07:16:37.447Z,101143.38
2023-08-08T07:19:12.820Z,101141.50
2023-08-08T07:21:48.974Z,101133.09
2023-08-08T07:24:21.628Z,101147.03
2023-08-08T07:26:54.568Z,101147.81
2023-08-08T07:29:33.450Z,101129.25
2023-08-08T07:32:33.251Z,101151.91
2023-08-08T07:35:18.752Z,101125.31
2023-08-08T07:37:51.475Z,101145.78
2023-08-08T07:40:24.247Z,101145.31
2023-08-08T07:43:08.961Z,101141.06
2023-08-08T07:45:43.896Z,101151.66
2023-08-08T07:48:18.827Z,101159.91
2023-08-08T07:50:51.505Z,101140.84
2023-08-08T07:53:27.220Z,101143.94
2023-08-08T07:55:59.896Z,101151.31
2023-08-08T07:58:34.053Z,101137.09
2023-08-08T08:01:31.931Z,101149.94
2023-08-08T08:04:13.869Z,101160.78
2023-08-08T08:06:46.510Z,101135.56
2023-08-08T08:09:31.501Z,101126.84
2023-08-08T08:12:04.741Z,101154.41
2023-08-08T08:14:40.736Z,101125.47
2023-08-08T08:17:13.409Z,101151.31
2023-08-08T08:19:46.050Z,101132.16
2023-08-08T08:22:34.060Z,101135.84
2023-08-08T08:25:10.162Z,101153.81
2023-08-08T08:27:51.483Z,101151.59
2023-08-08T08:30:26.615Z,101132.06
2023-08-08T08:33:02.101Z,101139.88
2023-08-08T08:35:36.486Z,101135.84
2023-08-08T08:38:12.018Z,101152.25
2023-08-08T08:40:48.356Z,101137.66
2023-08-08T08:43:23.990Z,101138.16
2023-08-08T08:45:58.562Z,101151.69
2023-08-08T08:48:32.629Z,101124.63
2023-08-08T08:51:20.549Z,101158.47
2023-08-08T08:53:53.347Z,101136.50
2023-08-08T08:56:26.974Z,101159.16
2023-08-08T08:59:11.827Z,101158.34
2023-08-08T09:02:01.341Z,101143.19
2023-08-08T09:04:49.926Z,101146.84
2023-08-08T09:07:42.821Z,101140.47
2023-08-08T09:10:19.977Z,101149.75
2023-08-08T09:12:52.837Z,101158.06
2023-08-08T09:15:25.495Z,101159.44
2023-08-08T09:18:04.362Z,101145.50
2023-08-08T09:20:37.044Z,101147.53
2023-08-08T09:23:10.499Z,101145.72
2023-08-08T09:25:43.244Z,101164.84
2023-08-08T09:28:25.202Z,101135.28
2023-08-08T09:31:10.135Z,101167.75
2023-08-08T09:36:34.310Z,101172.00
2023-08-08T09:39:08.450Z,101155.75
2023-08-08T09:44:44.080Z,101148.69
2023-08-08T09:47:23.464Z,101160.19
2023-08-08T09:50:11.656Z,101147.66
2023-08-08T09:52:45.264Z,101160.97
2023-08-08T09:55:19.767Z,101163.28
2023-08-08T09:58:14.746Z,101154.00
2023-08-08T10:00:51.845Z,101158.63
2023-08-08T10:03:39.114Z,101160.50
2023-08-08T10:06:12.487Z,101146.84
2023-08-08T10:09:11.664Z,101174.31
2023-08-08T10:11:46.234Z,101162.31
2023-08-08T10:14:19.032Z,101149.94
2023-08-08T10:16:51.771Z,101150.25
2023-08-08T10:19:37.170Z,101140.88
2023-08-08T10:24:57.380Z,101147.25
2023-08-08T10:27:50.597Z,101147.63
2023-08-08T10:31:28.922Z,101173.91
2023-08-08T10:34:22.889Z,101143.00
2023-08-08T10:40:20.605Z,101168.88
2023-08-08T10:43:13.878Z,101159.59
2023-08-08T10:46:14.017Z,101155.94
2023-08-08T10:49:06.905Z,101160.19
2023-08-08T10:51:55.423Z,101160.88
2023-08-08T10:54:34.526Z,101147.25
2023-08-08T10:57:17.751Z,101150.63
2023-08-08T10:59:50.558Z,101149.94
2023-08-08T11:02:24.427Z,101168.41
2023-08-08T11:05:08.302Z,101146.66
2023-08-08T11:07:58.214Z,101171.59
2023-08-08T11:10:52.885Z,101151.50
2023-08-08T11:13:39.934Z,101164.31
2023-08-08T11:16:12.661Z,101150.94
2023-08-08T11:18:57.431Z,101129.47
2023-08-08T11:21:30.279Z,101151.47
2023-08-08T11:24:07.664Z,101127.34
2023-08-08T11:27:00.398Z,101136.22
2023-08-08T11:29:51.994Z,101136.81
2023-08-08T11:32:41.742Z,101124.91
2023-08-08T11:35:40.962Z,101142.97
2023-08-08T11:38:15.296Z,101144.50
2023-08-08T11:40:51.223Z,101110.91
2023-08-08T11:46:13.534Z,101149.13
2023-08-08T11:49:07.606Z,101141.81
2023-08-08T11:51:49.894Z,101129.63
2023-08-08T11:54:39.316Z,101147.31
2023-08-08T11:57:12.513Z,101139.97
2023-08-08T11:59:51.766Z,101137.94
2023-08-08T12:02:44.678Z,101130.22
2023-08-08T12:05:39.419Z,101137.53
2023-08-08T12:08:25.090Z,101153.19
2023-08-08T12:11:10.780Z,101143.44
2023-08-08T12:14:01.596Z,101147.19
2023-08-08T12:16:50.049Z,101144.97
2023-08-08T12:19:26.445Z,101151.34
2023-08-08T12:22:06.045Z,101134.44
2023-08-08T12:24:51.335Z,101120.34
2023-08-08T12:27:27.411Z,101116.00
2023-08-08T12:30:00.235Z,101134.31
2023-08-08T12:32:39.239Z,101121.19
2023-08-08T12:35:11.912Z,101122.75
2023-08-08T12:41:15.956Z,101115.69
2023-08-08T12:46:35.439Z,101122.81
2023-08-08T12:49:22.354Z,101107.28
2023-08-08T12:55:10.050Z,101105.44
2023-08-08T12:57:42.724Z,101121.00
2023-08-08T13:00:18.876Z,101116.06
2023-08-08T13:02:51.674Z,101128.91
2023-08-08T13:05:24.600Z,101115.88
2023-08-08T13:07:57.299Z,101114.53
2023-08-08T13:10:33.947Z,101109.09
2023-08-08T13:13:07.079Z,101127.44
2023-08-08T13:15:48.990Z,101113.34
2023-08-08T13:18:21.758Z,101111.03
2023-08-08T13:21:02.788Z,101128.78
2023-08-08T13:23:35.478Z,101105.91
2023-08-08T13:26:08.212Z,101117.00
2023-08-08T13:28:50.998Z,101110.56
2023-08-08T13:31:36.301Z,101123.16
2023-08-08T13:34:09.070Z,101144.94
2023-08-08T13:36:56.789Z,101114.97
2023-08-08T13:39:47.517Z,101114.47
2023-08-08T13:42:20.250Z,101117.00
2023-08-08T13:45:02.191Z,101115.47
2023-08-08T13:47:47.239Z,101119.59
2023-08-08T13:50:19.922Z,101133.44
2023-08-08T13:53:00.885Z,101133.72
2023-08-08T13:55:51.532Z,101129.63
2023-08-08T13:58:33.338Z,101145.38
2023-08-08T14:01:07.707Z,101144.22
2023-08-08T14:03:49.863Z,101133.56
2023-08-08T14:06:22.596Z,101135.81
2023-08-08T14:09:01.548Z,101136.94
2023-08-08T14:11:34.433Z,101130.47
2023-08-08T14:14:19.100Z,101134.72
2023-08-08T14:16:56.381Z,101128.53
2023-08-08T14:19:29.136Z,101124.16
2023-08-08T14:22:02.076Z,101133.72
2023-08-08T14:24:50.656Z,101128.66
2023-08-08T14:27:27.755Z,101123.19
2023-08-08T14:30:14.901Z,101121.53
2023-08-08T14:32:47.644Z,101121.16
2023-08-08T14:35:20.934Z,101121.16
2023-08-08T14:38:03.139Z,101130.47
2023-08-08T14:40:44.969Z,101122.84
2023-08-08T14:43:29.875Z,101108.47
2023-08-08T14:46:02.754Z,101110.50
2023-08-08T14:48:38.213Z,101105.88
2023-08-08T14:51:22.431Z,101132.31
2023-08-08T14:54:07.442Z,101116.69
2023-08-08T14:56:40.209Z,101127.41
2023-08-08T14:59:16.333Z,101109.72
2023-08-08T15:01:49.278Z,101133.28
2023-08-08T15:04:47.056Z,101133.50
2023-08-08T15:07:20.342Z,101124.59
2023-08-08T15:10:04.823Z,101128.59
2023-08-08T15:12:53.148Z,101122.84
2023-08-08T15:15:30.522Z,101134.84
2023-08-08T15:18:18.429Z,101141.59
2023-08-08T15:21:03.545Z,101150.56
2023-08-08T15:23:49.614Z,101133.28
2023-08-08T15:26:34.479Z,101121.53
2023-08-08T15:31:46.458Z,101150.22
2023-08-08T15:34:37.458Z,101146.22
2023-08-08T15:37:33.831Z,101157.81
2023-08-08T15:40:09.856Z,101130.19
2023-08-08T15:42:57.463Z,101133.09
2023-08-08T15:45:44.659Z,101151.25
2023-08-08T15:48:23.192Z,101140.47
2023-08-08T15:50:56.201Z,101146.06
2023-08-08T15:53:38.011Z,101142.28
2023-08-08T15:56:16.959Z,101136.38
2023-08-08T15:58:49.705Z,101144.13
2023-08-08T16:01:22.438Z,101140.03
2023-08-08T16:03:55.299Z,101121.28
2023-08-08T16:06:30.299Z,101136.38
2023-08-08T16:12:04.062Z,101150.06
2023-08-08T16:14:51.882Z,101147.19
2023-08-08T16:17:24.710Z,101134.84
2023-08-08T16:20:10.169Z,101142.34
2023-08-08T16:23:00.993Z,101145.94
2023-08-08T16:25:48.875Z,101163.63
2023-08-08T16:28:33.613Z,101161.53
2023-08-08T16:31:15.481Z,101155.06
2023-08-08T16:33:48.475Z,101161.25
2023-08-08T16:36:22.315Z,101162.28
2023-08-08T16:39:17.619Z,101136.38
2023-08-08T16:44:48.215Z,101151.34
2023-08-08T16:47:28.989Z,101124.94
2023-08-08T16:50:05.572Z,101121.53
2023-08-08T16:52:47.584Z,101116.44
2023-08-08T16:55:35.169Z,101144.53
2023-08-08T16:58:16.569Z,101112.13
2023-08-08T17:00:49.574Z,101119.34
2023-08-08T17:03:39.727Z,101100.16
2023-08-08T17:06:21.791Z,101117.56
2023-08-08T17:09:13.458Z,101116.88
2023-08-08T17:11:49.436Z,101125.72
2023-08-08T17:14:22.454Z,101109.31
2023-08-08T17:20:31.721Z,101137.31
2023-08-08T17:23:14.016Z,101115.25
2023-08-08T17:25:46.783Z,101127.56
2023-08-08T17:28:30.968Z,101119.25
2023-08-08T17:31:15.327Z,101119.63
2023-08-08T17:34:12.649Z,101143.19
2023-08-08T17:36:45.338Z,101139.59
2023-08-08T17:39:34.387Z,101129.38
2023-08-08T17:42:12.779Z,101130.56
2023-08-08T17:45:00.361Z,101144.69
2023-08-08T17:47:44.097Z,101154.91
2023-08-08T17:50:16.823Z,101146.13
2023-08-08T17:53:01.125Z,101147.88
2023-08-08T17:55:39.820Z,101148.25
2023-08-08T17:58:25.394Z,101140.31
2023-08-08T18:00:58.218Z,101131.31
2023-08-08T18:03:31.062Z,101128.47
2023-08-08T18:06:05.050Z,101125.56
2023-08-08T18:08:49.803Z,101141.59
2023-08-08T18:14:11.933Z,101147.59
2023-08-08T18:16:59.310Z,101145.66
2023-08-08T18:19:38.071Z,101130.91
2023-08-08T18:22:29.193Z,101133.00
2023-08-08T18:25:11.667Z,101119.41
2023-08-08T18:27:56.555Z,101118.63
2023-08-08T18:30:29.396Z,101105.50
2023-08-08T18:33:03.559Z,101127.13
2023-08-08T18:35:36.401Z,101098.16
2023-08-08T18:38:09.807Z,101108.94
2023-08-08T18:40:52.328Z,101114.91
2023-08-08T18:43:37.316Z,101108.75
2023-08-08T18:46:10.052Z,101092.75
2023-08-08T18:48:45.586Z,101094.72
2023-08-08T18:51:24.293Z,101105.50
2023-08-08T18:53:56.993Z,101115.47
2023-08-08T18:56:41.696Z,101095.97
2023-08-08T18:59:14.507Z,101089.09
2023-08-08T19:01:56.551Z,101114.06
2023-08-08T19:04:29.342Z,101085.78
2023-08-08T19:07:02.803Z,101086.59
2023-08-08T19:09:43.633Z,101093.72
2023-08-08T19:12:16.334Z,101091.22
2023-08-08T19:14:49.244Z,101109.84
2023-08-08T19:17:22.318Z,101096.34
2023-08-08T19:19:55.335Z,101093.44
2023-08-08T19:22:28.049Z,101090.63
2023-08-08T19:25:00.786Z,101087.34
2023-08-08T19:27:33.655Z,101080.41
2023-08-08T19:33:06.095Z,101076.34
2023-08-08T19:35:39.205Z,101066.78
2023-08-08T19:38:17.448Z,101063.00
2023-08-08T19:40:58.784Z,101054.03
2023-08-08T19:43:32.186Z,101068.19
2023-08-08T19:46:05.335Z,101065.88
2023-08-08T19:48:38.429Z,101072.00
2023-08-08T19:51:11.271Z,101072.75
2023-08-08T19:53:44.706Z,101074.50
2023-08-08T19:56:47.776Z,101072.47
2023-08-08T19:59:11.052Z,101066.88
2023-08-08T20:01:43.833Z,101059.50
2023-08-08T20:04:21.877Z,101047.16
2023-08-08T20:06:54.857Z,101043.84
2023-08-08T20:09:30.713Z,101032.31
2023-08-08T20:12:05.928Z,101029.22
2023-08-08T20:14:38.759Z,101036.16
2023-08-08T20:17:26.859Z,101033.34
2023-08-08T20:19:59.744Z,101040.56
2023-08-08T20:22:47.309Z,101019.94
2023-08-08T20:25:48.011Z,101025.44
2023-08-08T20:28:24.001Z,101018.13
2023-08-08T20:30:59.138Z,100984.75
2023-08-08T20:33:31.943Z,101018.13
2023-08-08T20:36:05.062Z,101009.16
2023-08-08T20:38:37.793Z,100992.19
2023-08-08T20:41:10.571Z,101008.31
2023-08-08T20:43:43.291Z,100991.16
2023-08-08T20:46:16.505Z,101006.00
2023-08-08T20:49:06.068Z,101000.41
2023-08-08T20:51:38.774Z,101014.00
2023-08-08T20:54:11.823Z,100999.06
2023-08-08T20:57:00.789Z,100993.44
2023-08-08T20:59:37.313Z,101009.59
2023-08-08T21:02:11.230Z,101018.00
2023-08-08T21:07:48.685Z,101021.09
2023-08-08T21:10:28.846Z,101022.91
2023-08-08T21:13:10.421Z,100993.66
2023-08-08T21:15:46.029Z,100980.69
2023-08-08T21:18:18.775Z,100985.31
2023-08-08T21:21:01.544Z,100980.69
2023-08-08T21:23:35.211Z,100967.34
2023-08-08T21:26:07.992Z,100962.06
2023-08-08T21:28:40.711Z,100967.66
2023-08-08T21:31:13.489Z,100963.28
2023-08-08T21:33:46.373Z,100980.69
2023-08-08T21:36:19.383Z,100977.41
2023-08-08T21:38:52.022Z,100972.56
2023-08-08T21:41:28.506Z,100964.88
2023-08-08T21:44:01.283Z,100956.34
2023-08-08T21:47:36.573Z,100965.69
2023-08-08T21:49:29.807Z,100961.34
2023-08-08T21:52:03.688Z,100940.28
2023-08-08T21:54:37.512Z,100932.09
2023-08-08T21:57:10.250Z,100925.72
2023-08-08T21:59:45.472Z,100947.03
2023-08-08T22:02:18.252Z,100928.50
2023-08-08T22:04:52.333Z,100911.91
2023-08-08T22:07:25.008Z,100945.00
2023-08-08T22:09:57.698Z,100927.81
2023-08-08T22:12:30.793Z,100912.97
2023-08-08T22:15:04.626Z,100915.75
2023-08-08T22:17:43.135Z,100914.44
2023-08-08T22:20:21.374Z,100914.22
2023-08-08T22:22:54.589Z,100917.25
2023-08-08T22:25:34.168Z,100920.53
2023-08-08T22:28:18.777Z,100951.09
2023-08-08T22:30:53.338Z,100915.41
2023-08-08T22:33:26.568Z,100921.28
2023-08-08T22:36:02.453Z,100940.78
2023-08-08T22:38:35.314Z,100923.13
2023-08-08T22:41:16.627Z,100929.84
2023-08-08T22:43:51.432Z,100934.41
2023-08-08T22:46:24.848Z,100942.03
2023-08-08T22:48:57.770Z,100937.75
2023-08-08T22:51:30.613Z,100933.56
2023-08-08T22:54:03.583Z,100945.56
2023-08-08T22:56:48.583Z,100961.75
2023-08-08T22:59:25.505Z,100967.19
2023-08-08T23:01:58.276Z,100960.50
2023-08-08T23:04:33.085Z,100973.03
2023-08-08T23:07:06.019Z,100973.59
2023-08-08T23:09:38.755Z,100976.88
2023-08-08T23:12:11.542Z,100988.84
2023-08-08T23:14:49.543Z,100980.94
2023-08-08T23:17:22.590Z,100971.97
2023-08-08T23:19:55.440Z,100958.66
2023-08-08T23:22:28.264Z,100982.22
2023-08-08T23:25:00.959Z,100979.59
2023-08-08T23:27:35.020Z,100974.22
2023-08-08T23:30:08.316Z,100997.84
2023-08-08T23:32:54.613Z,100973.94
2023-08-08T23:35:31.042Z,101003.94
2023-08-08T23:38:19.286Z,100985.00
2023-08-08T23:41:03.826Z,100989.63
2023-08-08T23:43:36.607Z,100976.75
2023-08-08T23:46:15.880Z,100997.50
2023-08-08T23:49:03.757Z,100992.94
2023-08-08T23:51:38.019Z,100989.75
2023-08-08T23:54:16.870Z,100994.69
2023-08-08T23:56:57.863Z,101011.28
2023-08-08T23:59:44.941Z,101001.91
